Evelyn Maersk — OXHV2 — position and weather

sailwx.info

Track history (hours):
 
Tides and Currents Weather Stations Pressure Air Temp Water Temp Dewpoint Dewpoint Depression Visibility Wind Speed Wind Dir Waves Ship Positions

Evelyn Maersk

Last reported at 2015-May-22 14:03 UTC. Time now 2015-May-22 22:15 UTC.
Position N 01°11' E 103°40'.

Length 398 m; draft 14.6 m.

Type: Cargo ship. MMSI: 220496000.

Date/timePositionNaut miles runAvg speedWind from/ knotsBaromVisibWave heightAir tempDewpointWater temp
2015-May-22 14:03N 01°11' E 103°40'714.3
2015-May-22 13:32N 01°10' E 103°47'1717.2
2015-May-22 12:33N 01°16' E 104°03'6718.8
2015-May-22 09:00N 02°06' E 104°48'34322.8 180 / 141007.7 5.4 0.529.0 30.0
2015-May-21 18:00N 06°54' E 107°54'99122.7 240 / 101009.4 5.4 0.530.1 31.2
2015-May-19 22:21N 22°06' E 114°36'1215.6
2015-May-19 21:33N 22°18' E 114°32'3 0.2
2015-May-19 07:27N 22°18' E 114°29'1212.7
2015-May-19 06:33N 22°09' E 114°22'1712.4
2015-May-19 05:13N 22°16' E 114°06'4 5.9
2015-May-19 04:32N 22°20' E 114°07'0 0.2
2015-May-19 03:20N 22°20' E 114°07'0 0.0
2015-May-19 02:20N 22°20' E 114°07'0 0.0
2015-May-19 01:26N 22°20' E 114°07'0 0.0
2015-May-19 00:32N 22°20' E 114°07'0 0.0
2015-May-18 23:29N 22°20' E 114°07'0 0.0
2015-May-18 22:26N 22°20' E 114°07'0 0.0
2015-May-18 21:32N 22°20' E 114°07'0 0.0
2015-May-18 20:26N 22°20' E 114°07'0 0.0
2015-May-18 19:32N 22°20' E 114°07'0 0.0
2015-May-18 18:29N 22°20' E 114°07'0 0.0
2015-May-18 17:29N 22°20' E 114°07'0 0.3
2015-May-18 16:33N 22°20' E 114°07'8 7.4
2015-May-18 15:32N 22°13' E 114°10'10 9.8
2015-May-18 14:33N 22°09' E 114°19'1716.7
2015-May-18 13:33N 22°11' E 114°37'15319.1
2015-May-18 05:33N 23°01' E 117°13'2118.5
2015-May-18 04:24N 23°15' E 117°31'1416.4
2015-May-18 03:33N 23°24' E 117°42'1816.2
2015-May-18 02:28N 23°35' E 117°57'1415.4
2015-May-18 01:33N 23°43' E 118°09'1515.1
2015-May-18 00:33N 23°52' E 118°23'712.2
2015-May-18 00:00N 23°54' E 118°30'919.6 170 / 201007.7 5.4 0.526.0 25.5
2015-May-17 23:33N 24°01' E 118°36'1414.3
2015-May-17 22:33N 24°09' E 118°49'1414.2
2015-May-17 21:33N 24°18' E 119°01'1514.6
2015-May-17 20:31N 24°27' E 119°14'1514.5
2015-May-17 19:30N 24°37' E 119°27'3014.8
2015-May-17 17:27N 24°56' E 119°53'1815.0
2015-May-17 16:14N 25°10' E 120°05'1115.6
2015-May-17 15:32N 25°19' E 120°12'26517.1
2015-May-17 00:03N 29°10' E 122°38'1419.6
2015-May-16 23:20N 29°23' E 122°43'1418.1
2015-May-16 22:33N 29°36' E 122°35'1514.9
2015-May-16 21:33N 29°44' E 122°21'1312.9
2015-May-16 20:33N 29°53' E 122°11'7 7.3
2015-May-16 19:33N 29°53' E 122°03'0 0.0
2015-May-16 18:33N 29°53' E 122°03'0 0.0
2015-May-16 17:27N 29°53' E 122°03'0 0.0
2015-May-16 16:33N 29°53' E 122°03'0 0.0
2015-May-16 15:09N 29°53' E 122°03'0 0.0
2015-May-16 14:33N 29°53' E 122°03'0 0.0
2015-May-16 13:33N 29°53' E 122°03'0 0.0
2015-May-16 12:24N 29°53' E 122°03'0 0.0
2015-May-16 11:33N 29°53' E 122°03'0 0.0
2015-May-16 09:21N 29°53' E 122°03'0 0.0
2015-May-16 08:33N 29°53' E 122°03'0 0.0
2015-May-16 07:03N 29°53' E 122°03'0 0.0
2015-May-16 06:33N 29°53' E 122°03'0 0.0
2015-May-16 05:27N 29°53' E 122°03'0 0.0
2015-May-16 04:27N 29°53' E 122°03'0 0.0
2015-May-16 03:27N 29°53' E 122°03'0 0.0
2015-May-16 02:27N 29°53' E 122°03'0 0.0
2015-May-16 01:33N 29°53' E 122°03'4 4.3
2015-May-16 00:33N 29°55' E 122°07'1212.4
2015-May-15 23:33N 29°46' E 122°17'9 8.9
2015-May-15 22:33N 29°45' E 122°27'8 8.3
2015-May-15 21:33N 29°47' E 122°36'8 7.6
2015-May-15 20:33N 29°51' E 122°44'3315.9
2015-May-15 18:31N 30°22' E 122°56'1817.3
2015-May-15 17:30N 30°28' E 122°37'1818.6
2015-May-15 16:32N 30°33' E 122°17'1312.9
2015-May-15 15:33N 30°37' E 122°03'1 0.1
2015-May-15 06:09N 30°38' E 122°03'0 0.0
2015-May-15 05:21N 30°38' E 122°03'1 0.8
2015-May-15 04:33N 30°37' E 122°03'10 9.9
2015-May-15 03:31N 30°33' E 122°14'10 9.5
2015-May-15 02:26N 30°32' E 122°26'1010.8
2015-May-15 01:33N 30°32' E 122°37'  
2015-May-12 16:33N 36°40' E 122°55'1917.0
2015-May-12 15:26N 36°57' E 123°07'1717.8
2015-May-12 14:30N 37°13' E 123°12'  
Track history (hours):
 
Tides and Currents Weather Stations Pressure Air Temp Water Temp Dewpoint Dewpoint Depression Visibility Wind Speed Wind Dir Waves Ship Positions

Evelyn Maersk

Last reported at 2015-May-22 14:03 UTC. Time now 2015-May-22 22:15 UTC.
Position N 01°11' E 103°40'.

Length 398 m; draft 14.6 m.

Type: Cargo ship. MMSI: 220496000.

Date/timePositionNaut miles runAvg speedWind from/ knotsBaromVisibWave heightAir tempDewpointWater temp
2015-May-22 14:03N 01°11' E 103°40'714.3
2015-May-22 13:32N 01°10' E 103°47'1717.2
2015-May-22 12:33N 01°16' E 104°03'6718.8
2015-May-22 09:00N 02°06' E 104°48'34322.8 180 / 141007.7 5.4 0.529.0 30.0
2015-May-21 18:00N 06°54' E 107°54'99122.7 240 / 101009.4 5.4 0.530.1 31.2
2015-May-19 22:21N 22°06' E 114°36'1215.6
2015-May-19 21:33N 22°18' E 114°32'3 0.2
2015-May-19 07:27N 22°18' E 114°29'1212.7
2015-May-19 06:33N 22°09' E 114°22'1712.4
2015-May-19 05:13N 22°16' E 114°06'4 5.9
2015-May-19 04:32N 22°20' E 114°07'0 0.2
2015-May-19 03:20N 22°20' E 114°07'0 0.0
2015-May-19 02:20N 22°20' E 114°07'0 0.0
2015-May-19 01:26N 22°20' E 114°07'0 0.0
2015-May-19 00:32N 22°20' E 114°07'0 0.0
2015-May-18 23:29N 22°20' E 114°07'0 0.0
2015-May-18 22:26N 22°20' E 114°07'0 0.0
2015-May-18 21:32N 22°20' E 114°07'0 0.0
2015-May-18 20:26N 22°20' E 114°07'0 0.0
2015-May-18 19:32N 22°20' E 114°07'0 0.0
2015-May-18 18:29N 22°20' E 114°07'0 0.0
2015-May-18 17:29N 22°20' E 114°07'0 0.3
2015-May-18 16:33N 22°20' E 114°07'8 7.4
2015-May-18 15:32N 22°13' E 114°10'10 9.8
2015-May-18 14:33N 22°09' E 114°19'1716.7
2015-May-18 13:33N 22°11' E 114°37'15319.1
2015-May-18 05:33N 23°01' E 117°13'2118.5
2015-May-18 04:24N 23°15' E 117°31'1416.4
2015-May-18 03:33N 23°24' E 117°42'1816.2
2015-May-18 02:28N 23°35' E 117°57'1415.4
2015-May-18 01:33N 23°43' E 118°09'1515.1
2015-May-18 00:33N 23°52' E 118°23'712.2
2015-May-18 00:00N 23°54' E 118°30'919.6 170 / 201007.7 5.4 0.526.0 25.5
2015-May-17 23:33N 24°01' E 118°36'1414.3
2015-May-17 22:33N 24°09' E 118°49'1414.2
2015-May-17 21:33N 24°18' E 119°01'1514.6
2015-May-17 20:31N 24°27' E 119°14'1514.5
2015-May-17 19:30N 24°37' E 119°27'3014.8
2015-May-17 17:27N 24°56' E 119°53'1815.0
2015-May-17 16:14N 25°10' E 120°05'1115.6
2015-May-17 15:32N 25°19' E 120°12'26517.1
2015-May-17 00:03N 29°10' E 122°38'1419.6
2015-May-16 23:20N 29°23' E 122°43'1418.1
2015-May-16 22:33N 29°36' E 122°35'1514.9
2015-May-16 21:33N 29°44' E 122°21'1312.9
2015-May-16 20:33N 29°53' E 122°11'7 7.3
2015-May-16 19:33N 29°53' E 122°03'0 0.0
2015-May-16 18:33N 29°53' E 122°03'0 0.0
2015-May-16 17:27N 29°53' E 122°03'0 0.0
2015-May-16 16:33N 29°53' E 122°03'0 0.0
2015-May-16 15:09N 29°53' E 122°03'0 0.0
2015-May-16 14:33N 29°53' E 122°03'0 0.0
2015-May-16 13:33N 29°53' E 122°03'0 0.0
2015-May-16 12:24N 29°53' E 122°03'0 0.0
2015-May-16 11:33N 29°53' E 122°03'0 0.0
2015-May-16 09:21N 29°53' E 122°03'0 0.0
2015-May-16 08:33N 29°53' E 122°03'0 0.0
2015-May-16 07:03N 29°53' E 122°03'0 0.0
2015-May-16 06:33N 29°53' E 122°03'0 0.0
2015-May-16 05:27N 29°53' E 122°03'0 0.0
2015-May-16 04:27N 29°53' E 122°03'0 0.0
2015-May-16 03:27N 29°53' E 122°03'0 0.0
2015-May-16 02:27N 29°53' E 122°03'0 0.0
2015-May-16 01:33N 29°53' E 122°03'4 4.3
2015-May-16 00:33N 29°55' E 122°07'1212.4
2015-May-15 23:33N 29°46' E 122°17'9 8.9
2015-May-15 22:33N 29°45' E 122°27'8 8.3
2015-May-15 21:33N 29°47' E 122°36'8 7.6
2015-May-15 20:33N 29°51' E 122°44'3315.9
2015-May-15 18:31N 30°22' E 122°56'1817.3
2015-May-15 17:30N 30°28' E 122°37'1818.6
2015-May-15 16:32N 30°33' E 122°17'1312.9
2015-May-15 15:33N 30°37' E 122°03'1 0.1
2015-May-15 06:09N 30°38' E 122°03'0 0.0
2015-May-15 05:21N 30°38' E 122°03'1 0.8
2015-May-15 04:33N 30°37' E 122°03'10 9.9
2015-May-15 03:31N 30°33' E 122°14'10 9.5
2015-May-15 02:26N 30°32' E 122°26'1010.8
2015-May-15 01:33N 30°32' E 122°37'  
2015-May-12 16:33N 36°40' E 122°55'1917.0
2015-May-12 15:26N 36°57' E 123°07'1717.8
2015-May-12 14:30N 37°13' E 123°12'  

Dump ship's entire track history